Weather at Rainbow Air Tourism Center Heliport

Public forecast

Using degrees Fahrenheit for public forecast. Weather courtesy of forecast.io.

Closest aviation weather report (METAR) to Rainbow Air Tourism Center Heliport

Closest report is Niagara Falls International Airport, 4.5 nm (8.3 km) ENE.

2024/05/26 09:07 (retrieved 23 minutes ago)

KIAG 260907Z AUTO 00000KT 1/4SM R28R/1000V5000FT FG VV002 13/11 A2991 RMK AO2 T01280111

Closest aviation forecast (TAF) to Rainbow Air Tourism Center Heliport

Closest forecast is Niagara Falls International Airport, 4.5 nm (8.3 km) ENE.

2024/05/26 06:57 (retrieved 3 hours ago)

TAF KIAG 260553Z 2606/2706 00000KT 4SM BR OVC007 TEMPO 2606/2608 1SM BR BKN004 FM260800 00000KT 1/2SM FG OVC004 FM261200 00000KT 2SM BR BKN004 FM261400 VRB03KT P6SM BKN025 FM261600 08005KT P6SM SCT250 FM262000 06010KT P6SM SKC FM270300 10010KT P6SM BKN100